This is the latest recevied weather packets stored in our database for station/object PY2FGD-13. If no packets are shown the sender has not sent any weather packets the latest 10 day(s).
| Time | Temp. | Humidity | Pressure | Rain* | Wind** | Luminosity | Snow |
|---|---|---|---|---|---|---|---|
| 1777714063 | 23.33° C | 84% | 1017 hPa | - | - | - | - |
| 1777709264 | 23.33° C | 82% | 1015.6 hPa | - | - | - | - |
| 1777706263 | 23.33° C | 84% | 1015.3 hPa | - | - | - | - |
| 1777701462 | 23.33° C | 89% | 1015.1 hPa | - | - | - | - |
| 1777699062 | 23.33° C | 92% | 1015.6 hPa | - | - | - | - |
| 1777697862 | 23.89° C | 93% | 1015.6 hPa | - | - | - | - |
| 1777693678 | 23.89° C | 94% | 1016 hPa | - | - | - | - |
| 1777693063 | 23.89° C | 93% | 1015.9 hPa | - | - | - | - |
| 1777692462 | 23.89° C | 92% | 1016.2 hPa | - | - | - | - |
| 1777687664 | 21.67° C | 90% | 1017.3 hPa | - | - | - | - |
| 1777687062 | 22.22° C | 86% | 1017 hPa | - | - | - | - |
| 1777686462 | 23.33° C | 84% | 1016.8 hPa | - | - | - | - |
| 1777684062 | 23.89° C | 82% | 1017.1 hPa | - | - | - | - |
| 1777680462 | 23.89° C | 82% | 1017.2 hPa | - | - | - | - |
| 1777679862 | 23.89° C | 83% | 1017.2 hPa | - | - | - | - |
| 1777676862 | 23.89° C | 83% | 1017 hPa | - | - | - | - |
| 1777675063 | 23.89° C | 83% | 1016.6 hPa | - | - | - | - |
| 1777667862 | 23.89° C | 80% | 1015.9 hPa | - | - | - | - |
| 1777657077 | 23.89° C | 74% | 1016.2 hPa | - | - | - | - |
| 1777655278 | 24.44° C | 72% | 1016.3 hPa | - | - | - | - |
| 1777649862 | 23.89° C | 72% | 1017.8 hPa | - | - | - | - |
| 1777649263 | 23.89° C | 73% | 1017.9 hPa | - | - | - | - |
| 1777648662 | 24.44° C | 70% | 1018 hPa | - | - | - | - |
| 1777632461 | 21.67° C | 83% | 1019.6 hPa | - | - | - | - |
| 1777631861 | 21.67° C | 82% | 1019.6 hPa | - | - | - | - |
* Rain since midnight (hover to see other rain measurements)
** Current wind speed in m/s (hover to see current wind gust speed)